createdAt,value
2018-02-12T00:02:07.237Z,89.03
2018-02-12T00:04:34.762Z,88.90
2018-02-12T00:07:02.277Z,88.86
2018-02-12T00:09:29.793Z,88.91
2018-02-12T00:11:57.304Z,88.97
2018-02-12T00:14:24.819Z,89.15
2018-02-12T00:16:52.323Z,89.51
2018-02-12T00:19:19.846Z,89.46
2018-02-12T00:21:47.364Z,89.43
2018-02-12T00:24:14.876Z,89.84
2018-02-12T00:26:42.387Z,89.70
2018-02-12T00:29:09.917Z,89.85
2018-02-12T00:31:37.442Z,89.65
2018-02-12T00:34:04.971Z,89.47
2018-02-12T00:36:32.532Z,89.54
2018-02-12T00:39:00.049Z,89.51
2018-02-12T00:41:27.578Z,89.76
2018-02-12T00:43:55.109Z,89.78
2018-02-12T00:46:22.633Z,89.51
2018-02-12T00:48:50.156Z,89.70
2018-02-12T00:51:17.688Z,89.75
2018-02-12T00:53:45.201Z,89.74
2018-02-12T00:56:12.734Z,89.50
2018-02-12T00:58:40.260Z,89.48
2018-02-12T01:01:07.780Z,89.98
2018-02-12T01:03:35.299Z,90.18
2018-02-12T01:06:02.812Z,90.05
2018-02-12T01:08:31.134Z,90.43
2018-02-12T01:10:58.652Z,90.44
2018-02-12T01:13:26.169Z,90.21
2018-02-12T01:15:53.703Z,90.17
2018-02-12T01:18:21.215Z,90.21
2018-02-12T01:20:48.736Z,89.90
2018-02-12T01:23:16.257Z,90.04
2018-02-12T01:25:43.786Z,90.00
2018-02-12T01:28:11.301Z,90.06
2018-02-12T01:30:38.843Z,90.15
2018-02-12T01:33:06.361Z,90.13
2018-02-12T01:35:33.876Z,90.18
2018-02-12T01:38:01.396Z,89.98
2018-02-12T01:40:28.913Z,89.64
2018-02-12T01:42:56.420Z,90.01
2018-02-12T01:45:23.960Z,90.27
2018-02-12T01:47:51.483Z,90.19
2018-02-12T01:50:19.776Z,90.03
2018-02-12T01:52:47.290Z,90.19
2018-02-12T01:55:14.804Z,90.23
2018-02-12T01:57:42.325Z,89.96
2018-02-12T02:00:09.844Z,89.81
2018-02-12T02:02:37.362Z,89.93
2018-02-12T02:05:04.868Z,90.00
2018-02-12T02:07:32.395Z,90.09
2018-02-12T02:09:59.916Z,89.70
2018-02-12T02:12:27.427Z,89.61
2018-02-12T02:14:54.951Z,89.72
2018-02-12T02:17:22.477Z,89.96
2018-02-12T02:19:49.986Z,90.21
2018-02-12T02:22:17.497Z,90.05
2018-02-12T02:24:45.005Z,89.76
2018-02-12T02:27:12.527Z,89.92
2018-02-12T02:29:40.041Z,90.06
2018-02-12T02:32:07.563Z,90.22
2018-02-12T02:34:35.077Z,90.01
2018-02-12T02:37:02.603Z,89.94
2018-02-12T02:39:30.125Z,90.14
2018-02-12T02:41:57.650Z,90.27
2018-02-12T02:44:25.190Z,89.86
2018-02-12T02:46:52.705Z,89.96
2018-02-12T02:49:20.224Z,90.29
2018-02-12T02:51:47.756Z,90.42
2018-02-12T02:54:15.382Z,90.24
2018-02-12T02:56:42.904Z,90.24
2018-02-12T02:59:10.443Z,90.17
2018-02-12T03:01:37.959Z,90.26
2018-02-12T03:04:05.483Z,90.05
2018-02-12T03:06:33.008Z,90.10
2018-02-12T03:09:00.536Z,90.03
2018-02-12T03:11:28.067Z,90.12
2018-02-12T03:13:55.588Z,90.23
2018-02-12T03:16:23.103Z,90.24
2018-02-12T03:18:50.623Z,90.48
2018-02-12T03:21:18.191Z,90.30
2018-02-12T03:23:45.704Z,90.31
2018-02-12T03:26:13.223Z,90.30
2018-02-12T03:28:40.736Z,90.23
2018-02-12T03:31:08.253Z,90.16
2018-02-12T03:33:35.763Z,90.28
2018-02-12T03:36:03.283Z,90.46
2018-02-12T03:38:30.804Z,90.27
2018-02-12T03:40:58.328Z,90.23
2018-02-12T03:43:25.841Z,90.46
2018-02-12T03:45:56.880Z,90.30
2018-02-12T03:48:24.400Z,90.22
2018-02-12T03:50:51.919Z,90.10
2018-02-12T03:53:19.447Z,90.16
2018-02-12T03:55:46.963Z,89.96
2018-02-12T03:58:14.472Z,90.05
2018-02-12T04:00:42.300Z,90.02
2018-02-12T04:03:09.838Z,90.10
2018-02-12T04:05:37.356Z,90.02
2018-02-12T04:08:04.877Z,89.96
2018-02-12T04:10:32.406Z,90.01
2018-02-12T04:12:59.936Z,90.12
2018-02-12T04:15:27.447Z,90.24
2018-02-12T04:17:54.958Z,89.80
2018-02-12T04:20:22.472Z,89.86
2018-02-12T04:22:49.989Z,89.92
2018-02-12T04:25:17.507Z,90.02
2018-02-12T04:27:45.025Z,89.83
2018-02-12T04:30:12.536Z,89.89
2018-02-12T04:32:40.064Z,89.83
2018-02-12T04:35:07.597Z,89.76
2018-02-12T04:37:35.113Z,89.83
2018-02-12T04:40:02.628Z,89.71
2018-02-12T04:42:30.140Z,89.62
2018-02-12T04:44:57.661Z,89.64
2018-02-12T04:47:25.179Z,89.45
2018-02-12T04:49:52.679Z,89.35
2018-02-12T04:52:20.205Z,89.28
2018-02-12T04:54:47.720Z,89.13
2018-02-12T04:57:15.240Z,88.90
2018-02-12T04:59:42.751Z,88.77
2018-02-12T05:02:10.260Z,88.61
2018-02-12T05:04:37.767Z,88.51
2018-02-12T05:07:05.285Z,88.51
2018-02-12T05:09:32.793Z,88.48
2018-02-12T05:12:00.313Z,88.41
2018-02-12T05:14:27.838Z,88.62
2018-02-12T05:16:55.397Z,88.76
2018-02-12T05:19:22.926Z,88.54
2018-02-12T05:21:50.446Z,88.60
2018-02-12T05:24:17.981Z,88.79
2018-02-12T05:26:45.507Z,88.58
2018-02-12T05:29:13.016Z,88.69
2018-02-12T05:31:40.528Z,88.56
2018-02-12T05:34:08.049Z,88.52
2018-02-12T05:36:35.572Z,88.37
2018-02-12T05:39:03.084Z,88.12
2018-02-12T05:41:30.607Z,87.99
2018-02-12T05:43:58.117Z,87.85
2018-02-12T05:46:25.632Z,87.85
2018-02-12T05:48:53.158Z,87.79
2018-02-12T05:51:20.684Z,87.76
2018-02-12T05:53:48.311Z,87.52
2018-02-12T05:56:15.837Z,87.61
2018-02-12T05:58:43.362Z,87.48
2018-02-12T06:01:10.885Z,87.36
2018-02-12T06:03:38.402Z,87.35
2018-02-12T06:06:05.922Z,87.16
2018-02-12T06:08:33.435Z,87.14
2018-02-12T06:11:00.968Z,87.16
2018-02-12T06:13:28.529Z,87.10
2018-02-12T06:15:56.040Z,87.00
2018-02-12T06:18:23.551Z,87.01
2018-02-12T06:20:51.069Z,87.20
2018-02-12T06:23:18.576Z,86.93
2018-02-12T06:25:46.089Z,86.81
2018-02-12T06:28:13.605Z,86.77
2018-02-12T06:30:41.117Z,86.76
2018-02-12T06:33:08.648Z,86.78
2018-02-12T06:35:36.166Z,87.32
2018-02-12T06:38:03.679Z,87.17
2018-02-12T06:40:31.184Z,87.13
2018-02-12T06:42:58.709Z,86.93
2018-02-12T06:45:26.242Z,86.76
2018-02-12T06:47:53.760Z,86.81
2018-02-12T06:50:21.284Z,86.79
2018-02-12T06:52:48.809Z,86.81
2018-02-12T06:55:16.320Z,86.78
2018-02-12T06:57:43.835Z,86.69
2018-02-12T07:00:11.366Z,86.64
2018-02-12T07:02:38.881Z,86.49
2018-02-12T07:05:06.413Z,86.26
2018-02-12T07:07:33.942Z,86.15
2018-02-12T07:10:01.460Z,85.97
2018-02-12T07:12:28.992Z,85.90
2018-02-12T07:14:56.500Z,85.54
2018-02-12T07:17:24.024Z,85.29
2018-02-12T07:19:51.528Z,85.02
2018-02-12T07:22:19.039Z,84.61
2018-02-12T07:24:46.586Z,84.54
2018-02-12T07:27:14.106Z,84.40
2018-02-12T07:29:41.623Z,84.18
2018-02-12T07:32:09.162Z,84.12
2018-02-12T07:34:36.692Z,84.16
2018-02-12T07:37:04.283Z,83.77
2018-02-12T07:39:31.816Z,83.28
2018-02-12T07:41:59.325Z,83.35
2018-02-12T07:44:26.854Z,82.38
2018-02-12T07:46:54.391Z,82.08
2018-02-12T07:49:21.909Z,80.98
2018-02-12T07:51:49.438Z,80.42
2018-02-12T07:54:16.961Z,80.69
2018-02-12T07:56:44.482Z,80.57
2018-02-12T07:59:12.035Z,80.66
2018-02-12T08:01:39.573Z,80.82
2018-02-12T08:04:07.092Z,80.75
2018-02-12T08:06:34.620Z,79.88
2018-02-12T08:09:02.150Z,79.69
2018-02-12T08:11:29.665Z,78.73
2018-02-12T08:13:57.183Z,78.35
2018-02-12T08:16:24.694Z,78.92
2018-02-12T08:18:52.211Z,77.83
2018-02-12T08:21:19.745Z,77.66
2018-02-12T08:23:47.306Z,78.00
2018-02-12T08:26:14.837Z,78.06
2018-02-12T08:28:42.352Z,77.12
2018-02-12T08:31:09.868Z,77.78
2018-02-12T08:33:37.376Z,77.40
2018-02-12T08:36:04.898Z,78.00
2018-02-12T08:38:32.417Z,78.59
2018-02-12T08:40:59.957Z,78.57
2018-02-12T08:43:27.485Z,78.19
2018-02-12T08:45:55.002Z,78.09
2018-02-12T08:48:22.524Z,77.72
2018-02-12T08:50:50.053Z,77.73
2018-02-12T08:53:17.582Z,78.46
2018-02-12T08:55:45.109Z,77.75
2018-02-12T08:58:12.713Z,78.46
2018-02-12T09:00:40.230Z,77.31
2018-02-12T09:03:07.743Z,76.26
2018-02-12T09:05:35.262Z,74.69
2018-02-12T09:08:02.788Z,75.00
2018-02-12T09:10:30.295Z,75.69
2018-02-12T09:12:57.824Z,75.42
2018-02-12T09:15:25.342Z,74.52
2018-02-12T09:17:52.856Z,74.30
2018-02-12T09:20:20.391Z,74.11
2018-02-12T09:22:48.001Z,74.01
2018-02-12T09:25:15.554Z,74.13
2018-02-12T09:27:43.075Z,74.46
2018-02-12T09:30:10.601Z,74.67
2018-02-12T09:32:38.126Z,74.71
2018-02-12T09:35:05.685Z,74.63
2018-02-12T09:37:33.214Z,75.11
2018-02-12T09:40:00.743Z,74.49
2018-02-12T09:42:28.921Z,75.15
2018-02-12T09:44:56.441Z,75.36
2018-02-12T09:47:23.964Z,75.63
2018-02-12T09:49:51.481Z,75.61
2018-02-12T09:52:18.995Z,74.94
2018-02-12T09:54:46.511Z,74.48
2018-02-12T09:57:14.031Z,74.01
2018-02-12T09:59:41.637Z,73.33
2018-02-12T10:02:09.148Z,71.41
2018-02-12T10:04:36.668Z,68.98
2018-02-12T10:07:04.210Z,69.03
2018-02-12T10:09:31.744Z,65.06
2018-02-12T10:11:59.259Z,68.32
2018-02-12T10:14:26.774Z,66.94
2018-02-12T10:16:54.349Z,65.25
2018-02-12T10:19:21.864Z,64.60
2018-02-12T10:21:49.395Z,66.29
2018-02-12T10:24:17.012Z,66.42
2018-02-12T10:26:44.531Z,67.14
2018-02-12T10:29:12.059Z,69.20
2018-02-12T10:31:39.591Z,68.83
2018-02-12T10:34:07.106Z,68.44
2018-02-12T10:36:34.622Z,70.24
2018-02-12T10:39:02.177Z,69.31
2018-02-12T10:41:29.697Z,69.74
2018-02-12T10:43:57.228Z,69.11
2018-02-12T10:46:24.763Z,69.74
2018-02-12T10:48:52.306Z,70.33
2018-02-12T10:51:20.684Z,70.21
2018-02-12T10:53:48.215Z,69.18
2018-02-12T10:56:15.821Z,68.71
2018-02-12T10:58:43.331Z,68.95
2018-02-12T11:01:10.853Z,68.57
2018-02-12T11:03:38.384Z,68.02
2018-02-12T11:06:05.892Z,68.39
2018-02-12T11:08:33.415Z,67.59
2018-02-12T11:11:00.931Z,68.40
2018-02-12T11:13:28.452Z,67.17
2018-02-12T11:15:56.095Z,67.42
2018-02-12T11:18:23.608Z,67.84
2018-02-12T11:20:51.125Z,67.16
2018-02-12T11:23:18.647Z,68.33
2018-02-12T11:25:46.182Z,69.29
2018-02-12T11:28:13.719Z,69.91
2018-02-12T11:30:41.247Z,69.63
2018-02-12T11:33:08.757Z,69.33
2018-02-12T11:35:36.326Z,69.97
2018-02-12T11:38:03.848Z,69.26
2018-02-12T11:40:31.363Z,68.65
2018-02-12T11:42:58.894Z,68.36
2018-02-12T11:45:26.941Z,67.13
2018-02-12T11:47:54.449Z,67.94
2018-02-12T11:50:21.968Z,67.42
2018-02-12T11:52:49.491Z,67.48
2018-02-12T11:55:17.028Z,67.47
2018-02-12T11:57:44.551Z,66.32
2018-02-12T12:00:12.069Z,67.19
2018-02-12T12:02:39.586Z,66.99
2018-02-12T12:05:07.122Z,67.02
2018-02-12T12:07:34.652Z,67.40
2018-02-12T12:10:02.165Z,67.75
2018-02-12T12:12:29.671Z,67.89
2018-02-12T12:14:57.200Z,68.05
2018-02-12T12:17:24.734Z,67.70
2018-02-12T12:19:52.250Z,67.52
2018-02-12T12:22:19.765Z,67.25
2018-02-12T12:24:47.280Z,67.32
2018-02-12T12:27:14.793Z,67.36
2018-02-12T12:29:42.306Z,67.36
2018-02-12T12:32:09.818Z,67.61
2018-02-12T12:34:37.328Z,66.80
2018-02-12T12:37:04.844Z,67.07
2018-02-12T12:39:32.362Z,65.93
2018-02-12T12:41:59.888Z,65.85
2018-02-12T12:44:27.409Z,65.38
2018-02-12T12:46:54.916Z,64.62
2018-02-12T12:49:22.438Z,63.32
2018-02-12T12:51:49.952Z,63.99
2018-02-12T12:54:17.577Z,63.66
2018-02-12T12:56:45.101Z,63.27
2018-02-12T12:59:12.612Z,62.32
2018-02-12T13:01:40.116Z,60.63
2018-02-12T13:04:07.631Z,62.02
2018-02-12T13:06:35.135Z,61.57
2018-02-12T13:09:02.636Z,61.23
2018-02-12T13:11:30.153Z,60.28
2018-02-12T13:13:57.655Z,62.36
2018-02-12T13:16:25.168Z,60.19
2018-02-12T13:18:52.720Z,60.84
2018-02-12T13:21:20.223Z,61.03
2018-02-12T13:23:47.728Z,62.85
2018-02-12T13:26:15.237Z,61.48
2018-02-12T13:28:42.761Z,60.81
2018-02-12T13:31:10.265Z,60.11
2018-02-12T13:33:37.778Z,60.87
2018-02-12T13:36:05.340Z,61.33
2018-02-12T13:38:32.841Z,60.87
2018-02-12T13:41:00.354Z,60.88
2018-02-12T13:43:27.873Z,60.80
2018-02-12T13:45:55.388Z,61.46
2018-02-12T13:48:22.907Z,61.19
2018-02-12T13:50:50.415Z,62.55
2018-02-12T13:53:17.925Z,62.48
2018-02-12T13:55:45.443Z,62.27
2018-02-12T13:58:12.956Z,62.53
2018-02-12T14:00:40.539Z,62.78
2018-02-12T14:03:08.062Z,63.23
2018-02-12T14:05:35.577Z,63.37
2018-02-12T14:08:03.105Z,63.37
2018-02-12T14:10:30.639Z,64.09
2018-02-12T14:12:58.189Z,64.63
2018-02-12T14:15:25.705Z,64.86
2018-02-12T14:17:53.217Z,65.16
2018-02-12T14:20:20.784Z,65.40
2018-02-12T14:22:48.279Z,65.69
2018-02-12T14:25:15.780Z,65.93
2018-02-12T14:27:43.299Z,65.68
2018-02-12T14:30:10.808Z,65.93
2018-02-12T14:32:38.322Z,65.39
2018-02-12T14:35:05.848Z,65.09
2018-02-12T14:37:33.376Z,65.21
2018-02-12T14:40:00.898Z,65.50
2018-02-12T14:42:28.401Z,65.85
2018-02-12T14:44:55.944Z,66.02
2018-02-12T14:47:23.456Z,66.10
2018-02-12T14:49:51.604Z,66.51
2018-02-12T14:52:19.114Z,66.75
2018-02-12T14:54:46.623Z,66.41
2018-02-12T14:57:14.171Z,66.67
2018-02-12T14:59:41.685Z,66.72
2018-02-12T15:02:09.217Z,66.76
2018-02-12T15:04:36.808Z,67.11
2018-02-12T15:07:05.538Z,67.54
2018-02-12T15:09:33.052Z,67.86
2018-02-12T15:12:00.572Z,67.74
2018-02-12T15:14:28.113Z,67.85
2018-02-12T15:16:55.622Z,67.75
2018-02-12T15:19:23.145Z,67.61
2018-02-12T15:21:50.647Z,67.38
2018-02-12T15:24:18.437Z,67.42
2018-02-12T15:26:45.968Z,68.16
2018-02-12T15:29:13.518Z,67.42
2018-02-12T15:31:41.030Z,67.83
2018-02-12T15:34:08.543Z,68.26
2018-02-12T15:36:36.073Z,68.23
2018-02-12T15:39:03.584Z,68.52
2018-02-12T15:41:31.106Z,68.72
2018-02-12T15:43:58.629Z,69.03
2018-02-12T15:46:26.144Z,69.09
2018-02-12T15:48:53.666Z,69.12
2018-02-12T15:51:21.202Z,69.37
2018-02-12T15:53:48.806Z,69.58
2018-02-12T15:56:16.321Z,69.64
2018-02-12T15:58:43.839Z,70.15
2018-02-12T16:01:11.360Z,72.81
2018-02-12T16:03:38.882Z,77.73
2018-02-12T16:06:06.407Z,79.96
2018-02-12T16:08:33.907Z,80.43
2018-02-12T16:11:01.422Z,80.48
2018-02-12T16:13:28.942Z,80.48
2018-02-12T16:15:56.457Z,79.25
2018-02-12T16:18:23.973Z,78.81
2018-02-12T16:20:51.519Z,78.05
2018-02-12T16:23:19.046Z,78.02
2018-02-12T16:25:46.577Z,78.66
2018-02-12T16:28:14.085Z,77.93
2018-02-12T16:30:41.592Z,78.29
2018-02-12T16:33:09.103Z,78.06
2018-02-12T16:35:36.612Z,78.15
2018-02-12T16:38:04.146Z,78.42
2018-02-12T16:40:31.653Z,78.05
2018-02-12T16:42:59.171Z,78.19
2018-02-12T16:45:26.682Z,77.71
2018-02-12T16:47:54.189Z,77.93
2018-02-12T16:50:21.714Z,78.39
2018-02-12T16:52:49.217Z,78.24
2018-02-12T16:55:16.742Z,77.63
2018-02-12T16:57:44.250Z,78.32
2018-02-12T17:00:11.770Z,78.21
2018-02-12T17:02:39.301Z,78.00
2018-02-12T17:05:06.820Z,78.80
2018-02-12T17:07:34.327Z,78.17
2018-02-12T17:10:01.842Z,78.49
2018-02-12T17:12:29.364Z,78.27
2018-02-12T17:14:56.892Z,78.83
2018-02-12T17:17:24.404Z,79.26
2018-02-12T17:19:51.940Z,78.86
2018-02-12T17:22:19.448Z,78.88
2018-02-12T17:24:46.967Z,79.19
2018-02-12T17:27:14.480Z,79.42
2018-02-12T17:29:41.979Z,79.46
2018-02-12T17:32:09.489Z,79.26
2018-02-12T17:34:37.012Z,79.40
2018-02-12T17:37:04.532Z,80.10
2018-02-12T17:39:32.045Z,79.68
2018-02-12T17:41:59.569Z,79.36
2018-02-12T17:44:27.085Z,79.76
2018-02-12T17:46:54.611Z,79.74
2018-02-12T17:49:22.148Z,79.80
2018-02-12T17:51:49.682Z,79.75
2018-02-12T17:54:17.201Z,79.69
2018-02-12T17:56:44.779Z,79.63
2018-02-12T17:59:12.304Z,79.38
2018-02-12T18:01:39.819Z,79.03
2018-02-12T18:04:07.335Z,79.15
2018-02-12T18:06:34.859Z,79.31
2018-02-12T18:09:02.364Z,79.60
2018-02-12T18:11:29.878Z,79.20
2018-02-12T18:13:57.393Z,79.33
2018-02-12T18:16:24.908Z,79.20
2018-02-12T18:18:52.453Z,79.46
2018-02-12T18:21:19.970Z,79.54
2018-02-12T18:23:47.486Z,79.46
2018-02-12T18:26:15.008Z,79.23
2018-02-12T18:28:42.538Z,79.18
2018-02-12T18:31:10.622Z,79.18
2018-02-12T18:33:38.125Z,79.25
2018-02-12T18:36:05.636Z,79.69
2018-02-12T18:38:33.153Z,79.78
2018-02-12T18:41:00.674Z,79.68
2018-02-12T18:43:28.208Z,79.65
2018-02-12T18:45:55.730Z,79.61
2018-02-12T18:48:23.254Z,79.56
2018-02-12T18:50:50.771Z,79.91
2018-02-12T18:53:18.290Z,79.83
2018-02-12T18:55:45.808Z,79.70
2018-02-12T18:58:13.328Z,79.93
2018-02-12T19:00:40.846Z,80.41
2018-02-12T19:03:08.360Z,80.50
2018-02-12T19:05:35.877Z,80.07
2018-02-12T19:08:03.403Z,80.47
2018-02-12T19:10:30.916Z,80.49
2018-02-12T19:12:58.436Z,80.48
2018-02-12T19:15:25.971Z,80.69
2018-02-12T19:17:53.481Z,80.60
2018-02-12T19:20:20.990Z,82.06
2018-02-12T19:22:48.560Z,82.02
2018-02-12T19:25:16.067Z,81.66
2018-02-12T19:27:43.583Z,81.43
2018-02-12T19:30:11.094Z,81.31
2018-02-12T19:32:38.611Z,80.85
2018-02-12T19:35:06.122Z,80.51
2018-02-12T19:37:33.647Z,80.84
2018-02-12T19:40:01.160Z,81.43
2018-02-12T19:42:28.755Z,81.32
2018-02-12T19:44:56.277Z,81.25
2018-02-12T19:47:23.788Z,81.07
2018-02-12T19:49:51.313Z,81.40
2018-02-12T19:52:18.825Z,81.22
2018-02-12T19:54:46.332Z,81.38
2018-02-12T19:57:13.843Z,81.43
2018-02-12T19:59:41.366Z,81.48
2018-02-12T20:02:08.893Z,81.38
2018-02-12T20:04:36.436Z,81.14
2018-02-12T20:07:03.957Z,81.38
2018-02-12T20:09:31.501Z,81.61
2018-02-12T20:11:59.011Z,81.11
2018-02-12T20:14:26.531Z,81.09
2018-02-12T20:16:54.038Z,81.72
2018-02-12T20:19:21.565Z,81.45
2018-02-12T20:21:49.093Z,81.20
2018-02-12T20:24:16.644Z,81.15
2018-02-12T20:26:44.166Z,81.49
2018-02-12T20:29:11.685Z,81.32
2018-02-12T20:31:39.202Z,81.63
2018-02-12T20:34:06.743Z,81.58
2018-02-12T20:36:34.270Z,81.64
2018-02-12T20:39:01.782Z,81.76
2018-02-12T20:41:29.311Z,81.72
2018-02-12T20:43:56.838Z,82.08
2018-02-12T20:46:24.358Z,81.88
2018-02-12T20:48:51.877Z,82.01
2018-02-12T20:51:19.398Z,82.35
2018-02-12T20:53:46.909Z,82.52
2018-02-12T20:56:14.432Z,82.91
2018-02-12T20:58:41.956Z,82.98
2018-02-12T21:01:09.481Z,82.98
2018-02-12T21:03:36.989Z,82.64
2018-02-12T21:06:04.500Z,82.99
2018-02-12T21:08:32.040Z,82.95
2018-02-12T21:10:59.567Z,82.93
2018-02-12T21:13:27.100Z,83.02
2018-02-12T21:15:54.639Z,83.64
2018-02-12T21:18:22.178Z,83.39
2018-02-12T21:20:49.696Z,83.17
2018-02-12T21:23:17.953Z,83.52
2018-02-12T21:25:45.463Z,83.46
2018-02-12T21:28:12.964Z,83.70
2018-02-12T21:30:40.495Z,84.01
2018-02-12T21:33:08.014Z,84.00
2018-02-12T21:35:35.540Z,84.51
2018-02-12T21:38:03.060Z,84.42
2018-02-12T21:40:30.577Z,83.96
2018-02-12T21:42:58.105Z,84.75
2018-02-12T21:45:25.611Z,84.41
2018-02-12T21:47:53.123Z,84.50
2018-02-12T21:50:20.644Z,84.67
2018-02-12T21:52:48.156Z,84.26
2018-02-12T21:55:15.694Z,84.64
2018-02-12T21:57:43.261Z,84.42
2018-02-12T22:00:10.782Z,84.40
2018-02-12T22:02:38.320Z,84.56
2018-02-12T22:05:05.854Z,84.22
2018-02-12T22:07:33.400Z,84.62
2018-02-12T22:10:01.008Z,84.70
2018-02-12T22:12:31.225Z,85.18
2018-02-12T22:15:08.033Z,84.71
2018-02-12T22:17:37.156Z,85.16
2018-02-12T22:20:04.707Z,84.99
2018-02-12T22:22:32.232Z,85.17
2018-02-12T22:24:59.746Z,85.05
2018-02-12T22:27:27.276Z,85.08
2018-02-12T22:29:54.815Z,84.77
2018-02-12T22:32:22.350Z,84.75
2018-02-12T22:34:49.873Z,84.78
2018-02-12T22:37:17.394Z,85.00
2018-02-12T22:39:44.948Z,84.85
2018-02-12T22:42:13.233Z,84.75
2018-02-12T22:44:40.764Z,85.06
2018-02-12T22:47:08.272Z,85.56
2018-02-12T22:49:35.802Z,85.12
2018-02-12T22:52:03.316Z,85.04
2018-02-12T22:54:30.841Z,85.37
2018-02-12T22:56:58.385Z,85.76
2018-02-12T22:59:25.908Z,85.58
2018-02-12T23:01:53.425Z,85.95
2018-02-12T23:04:20.958Z,85.66
2018-02-12T23:06:48.471Z,85.96
2018-02-12T23:09:16.002Z,85.97
2018-02-12T23:11:43.615Z,85.74
2018-02-12T23:14:11.200Z,85.90
2018-02-12T23:16:38.814Z,85.71
2018-02-12T23:19:06.414Z,86.20
2018-02-12T23:21:33.959Z,85.83
2018-02-12T23:24:01.477Z,86.13
2018-02-12T23:26:29.015Z,86.18
2018-02-12T23:28:56.667Z,86.39
2018-02-12T23:31:24.223Z,86.32
2018-02-12T23:33:51.740Z,86.56
2018-02-12T23:36:19.272Z,87.01
2018-02-12T23:38:46.834Z,87.12
2018-02-12T23:41:14.363Z,86.88
2018-02-12T23:43:41.879Z,86.80
2018-02-12T23:46:10.065Z,86.86
2018-02-12T23:48:37.579Z,86.79
2018-02-12T23:51:05.100Z,86.85
2018-02-12T23:53:32.658Z,86.99
2018-02-12T23:56:00.192Z,86.96
2018-02-12T23:58:27.705Z,87.08
